Oxford, New Jersey
Current Conditions -  °F | °C
As of 4:53 PM on Sunday 25 Jan 2015 (Local Time) from KSMQ Reporting Station
Clear Clear  
Wind Chill: 39°   Ceiling: Unl
Heat Index: 39°   Visibility: 10mi
Dew Point: 18°   Wind: 3mph
Humidity: 43%   Direction: 10°N
Pressure: 29.82"   Gusts: NA
Location:  40.81°N, 75°W
Report Text: KSMQ 252153Z AUTO 01003KT 10SM CLR 04/M08 A2982 RMK AO2 SLP100 T00391078 TSNO
Loading
Personal Weather Stations






























Interactive Weather Map New forecast layout! Learn more

10-Day Weather Forecast

Advertisements
Track Severe Weather on mobile